Kalenakliyat 2 — TCBA7 — position and weather

sailwx.info

Track history (hours):
 
Tides and Currents Weather Stations Pressure Air Temp Water Temp Dewpoint Dewpoint Depression Visibility Wind Speed Wind Dir Waves Ship Positions

Kalenakliyat 2

Last reported at 2014-Aug-21 05:33 UTC. Time now 2014-Aug-21 06:21 UTC.
Position N 40°53' E 029°12'.

Length 73 m; draft 4.3 m.

Type: Cargo ship. MMSI: 271002023.

Date/timePositionNaut miles runAvg speedWind from/ knotsBaromVisibWave heightAir tempDewpointWater temp
2014-Aug-21 05:33N 40°53' E 029°12'0 0.0
2014-Aug-21 04:33N 40°53' E 029°12'0 0.0
2014-Aug-21 03:33N 40°53' E 029°12'0 0.0
2014-Aug-21 02:32N 40°53' E 029°12'0 0.0
2014-Aug-21 01:33N 40°53' E 029°12'0 0.0
2014-Aug-21 00:33N 40°53' E 029°12'0 0.0
2014-Aug-20 23:33N 40°53' E 029°12'0 0.0
2014-Aug-20 22:33N 40°53' E 029°12'0 0.0
2014-Aug-20 21:32N 40°53' E 029°12'0 0.0
2014-Aug-20 20:33N 40°53' E 029°12'0 0.0
2014-Aug-20 19:32N 40°53' E 029°12'5 4.8
2014-Aug-20 18:31N 40°54' E 029°06'28 6.6
2014-Aug-20 14:21N 41°16' E 029°30'7 9.3
2014-Aug-20 13:33N 41°16' E 029°39'  
2014-Aug-13 09:33N 41°15' E 029°34'29 6.9
2014-Aug-13 05:20N 41°00' E 028°60'5 6.4
2014-Aug-13 04:33N 40°55' E 028°59'8 7.9
2014-Aug-13 03:33N 40°50' E 028°51'3 2.4
2014-Aug-13 02:16N 40°48' E 028°48'0 0.4
2014-Aug-13 01:32N 40°48' E 028°49'0 0.4
2014-Aug-13 00:21N 40°48' E 028°49'  
Track history (hours):
 
Tides and Currents Weather Stations Pressure Air Temp Water Temp Dewpoint Dewpoint Depression Visibility Wind Speed Wind Dir Waves Ship Positions

Kalenakliyat 2

Last reported at 2014-Aug-21 05:33 UTC. Time now 2014-Aug-21 06:21 UTC.
Position N 40°53' E 029°12'.

Length 73 m; draft 4.3 m.

Type: Cargo ship. MMSI: 271002023.

Date/timePositionNaut miles runAvg speedWind from/ knotsBaromVisibWave heightAir tempDewpointWater temp
2014-Aug-21 05:33N 40°53' E 029°12'0 0.0
2014-Aug-21 04:33N 40°53' E 029°12'0 0.0
2014-Aug-21 03:33N 40°53' E 029°12'0 0.0
2014-Aug-21 02:32N 40°53' E 029°12'0 0.0
2014-Aug-21 01:33N 40°53' E 029°12'0 0.0
2014-Aug-21 00:33N 40°53' E 029°12'0 0.0
2014-Aug-20 23:33N 40°53' E 029°12'0 0.0
2014-Aug-20 22:33N 40°53' E 029°12'0 0.0
2014-Aug-20 21:32N 40°53' E 029°12'0 0.0
2014-Aug-20 20:33N 40°53' E 029°12'0 0.0
2014-Aug-20 19:32N 40°53' E 029°12'5 4.8
2014-Aug-20 18:31N 40°54' E 029°06'28 6.6
2014-Aug-20 14:21N 41°16' E 029°30'7 9.3
2014-Aug-20 13:33N 41°16' E 029°39'  
2014-Aug-13 09:33N 41°15' E 029°34'29 6.9
2014-Aug-13 05:20N 41°00' E 028°60'5 6.4
2014-Aug-13 04:33N 40°55' E 028°59'8 7.9
2014-Aug-13 03:33N 40°50' E 028°51'3 2.4
2014-Aug-13 02:16N 40°48' E 028°48'0 0.4
2014-Aug-13 01:32N 40°48' E 028°49'0 0.4
2014-Aug-13 00:21N 40°48' E 028°49'  

Dump ship's entire track history